| time (UTC) | temp F | wind direction | speed MPH | gust MPH | rain 1hr in | rain 24hr in | rain mn in | humidity % | barometer mb |
| 20260901205128 | 81 | 4 | 4.0 | 6.0 | 0.00 | 0.00 | 0.00 | 29 | 1014.4 |
| 20260901204624 | 81 | 322 | 2.0 | 6.0 | 0.00 | 0.00 | 0.00 | 30 | 1014.6 |
| 20260901204119 | 80 | 347 | 5.0 | 6.0 | 0.00 | 0.00 | 0.00 | 29 | 1014.7 |
| 20260901203614 | 80 | 321 | 2.0 | 6.0 | 0.00 | 0.00 | 0.00 | 31 | 1014.7 |
| 20260901203109 | 80 | 321 | 0.0 | 5.0 | 0.00 | 0.00 | 0.00 | 31 | 1014.9 |
| 20260901202608 | 79 | 327 | 5.0 | 6.0 | 0.00 | 0.00 | 0.00 | 31 | 1014.8 |
| 20260901202105 | 78 | 275 | 1.0 | 5.0 | 0.00 | 0.00 | 0.00 | 31 | 1015.0 |
| 20260901201600 | 78 | 312 | 4.0 | 5.0 | 0.00 | 0.00 | 0.00 | 31 | 1015.0 |
| 20260901201059 | 79 | 319 | 5.0 | 7.0 | 0.00 | 0.00 | 0.00 | 30 | 1014.9 |
| 20260901200559 | 79 | 5 | 4.0 | 8.0 | 0.00 | 0.00 | 0.00 | 31 | 1015.2 |
| 20260901200054 | 78 | 29 | 4.0 | 8.0 | 0.00 | 0.00 | 0.00 | 31 | 1015.3 |
| 20260901195552 | 78 | 359 | 2.0 | 6.0 | 0.00 | 0.00 | 0.00 | 32 | 1015.4 |
| 20260901195051 | 78 | 292 | 5.0 | 7.0 | 0.00 | 0.00 | 0.00 | 32 | 1015.6 |
| 20260901194547 | 77 | 324 | 3.0 | 6.0 | 0.00 | 0.00 | 0.00 | 32 | 1015.7 |
| 20260901194042 | 77 | 294 | 2.0 | 2.0 | 0.00 | 0.00 | 0.00 | 33 | 1015.7 |
| 20260901193541 | 77 | 42 | 0.0 | 7.0 | 0.00 | 0.00 | 0.00 | 33 | 1015.7 |
| 20260901193037 | 76 | 242 | 5.0 | 7.0 | 0.00 | 0.00 | 0.00 | 33 | 1015.8 |
| 20260901192531 | 76 | 314 | 3.0 | 3.0 | 0.00 | 0.00 | 0.00 | 34 | 1016.0 |
| 20260901192027 | 75 | 315 | 2.0 | 5.0 | 0.00 | 0.00 | 0.00 | 35 | 1016.0 |
| 20260901191523 | 75 | 7 | 2.0 | 3.0 | 0.00 | 0.00 | 0.00 | 34 | 1016.2 |
| 20260901191019 | 75 | 347 | 1.0 | 3.0 | 0.00 | 0.00 | 0.00 | 34 | 1016.2 |
| 20260901190514 | 74 | 343 | 1.0 | 5.0 | 0.00 | 0.00 | 0.00 | 34 | 1016.2 |
| 20260901190013 | 74 | 311 | 3.0 | 6.0 | 0.00 | 0.00 | 0.00 | 35 | 1016.3 |
| 20260901185507 | 73 | 351 | 3.0 | 5.0 | 0.00 | 0.00 | 0.00 | 35 | 1016.4 |
| 20260901185006 | 73 | 301 | 2.0 | 7.0 | 0.00 | 0.00 | 0.00 | 35 | 1016.3 |
| 20260901184502 | 75 | 323 | 4.0 | 5.0 | 0.00 | 0.00 | 0.00 | 34 | 1016.7 |
| 20260901183957 | 75 | 315 | 3.0 | 6.0 | 0.00 | 0.00 | 0.00 | 33 | 1016.7 |
| 20260901183456 | 73 | 359 | 2.0 | 6.0 | 0.00 | 0.00 | 0.00 | 35 | 1016.8 |
| 20260901182952 | 73 | 330 | 4.0 | 5.0 | 0.00 | 0.00 | 0.00 | 34 | 1017.0 |
| 20260901182448 | 74 | 323 | 3.0 | 7.0 | 0.00 | 0.00 | 0.00 | 34 | 1016.8 |
| 20260901181948 | 73 | 15 | 2.0 | 5.0 | 0.00 | 0.00 | 0.00 | 36 | 1017.0 |
| 20260901181443 | 72 | 15 | 3.0 | 6.0 | 0.00 | 0.00 | 0.00 | 35 | 1017.1 |
| 20260901180942 | 72 | 336 | 7.0 | 8.0 | 0.00 | 0.00 | 0.00 | 37 | 1017.2 |
| 20260901180441 | 72 | 328 | 2.0 | 3.0 | 0.00 | 0.00 | 0.00 | 36 | 1017.2 |
| 20260901175939 | 71 | 19 | 4.0 | 6.0 | 0.00 | 0.00 | 0.00 | 36 | 1017.4 |
| 20260901175435 | 71 | 237 | 0.0 | 3.0 | 0.00 | 0.00 | 0.00 | 37 | 1017.4 |
| 20260901174930 | 70 | 31 | 3.0 | 6.0 | 0.00 | 0.00 | 0.00 | 37 | 1017.6 |
| 20260901174425 | 69 | 314 | 3.0 | 5.0 | 0.00 | 0.00 | 0.00 | 38 | 1017.7 |
| 20260901173921 | 69 | 332 | 2.0 | 8.0 | 0.00 | 0.00 | 0.00 | 38 | 1017.7 |
| 20260901173416 | 68 | 20 | 4.0 | 7.0 | 0.00 | 0.00 | 0.00 | 39 | 1017.8 |
| 20260901172912 | 69 | 26 | 2.0 | 3.0 | 0.00 | 0.00 | 0.00 | 38 | 1017.9 |
| 20260901172407 | 67 | 314 | 4.0 | 6.0 | 0.00 | 0.00 | 0.00 | 40 | 1018.0 |
| 20260901171905 | 67 | 323 | 3.0 | 5.0 | 0.00 | 0.00 | 0.00 | 41 | 1018.1 |
| 20260901171403 | 66 | 27 | 1.0 | 7.0 | 0.00 | 0.00 | 0.00 | 41 | 1018.2 |
| 20260901170902 | 66 | 311 | 3.0 | 3.0 | 0.00 | 0.00 | 0.00 | 42 | 1018.5 |
| 20260901170358 | 66 | 56 | 1.0 | 7.0 | 0.00 | 0.00 | 0.00 | 42 | 1018.5 |
| 20260901165852 | 65 | 315 | 5.0 | 6.0 | 0.00 | 0.00 | 0.00 | 43 | 1018.3 |
| 20260901165351 | 64 | 308 | 3.0 | 5.0 | 0.00 | 0.00 | 0.00 | 44 | 1018.5 |
| 20260901164848 | 64 | 16 | 2.0 | 3.0 | 0.00 | 0.00 | 0.00 | 44 | 1018.7 |
| 20260901164344 | 63 | 2 | 3.0 | 5.0 | 0.00 | 0.00 | 0.00 | 45 | 1018.7 |
| 20260901163843 | 63 | 320 | 6.0 | 6.0 | 0.00 | 0.00 | 0.00 | 45 | 1018.7 |
| 20260901163338 | 62 | 14 | 5.0 | 6.0 | 0.00 | 0.00 | 0.00 | 47 | 1018.7 |
| 20260901162828 | 62 | 312 | 1.0 | 5.0 | 0.00 | 0.00 | 0.00 | 47 | 1018.7 |
| 20260901162326 | 62 | 51 | 2.0 | 3.0 | 0.00 | 0.00 | 0.00 | 48 | 1018.8 |
| 20260901161820 | 61 | 25 | 1.0 | 5.0 | 0.00 | 0.00 | 0.00 | 49 | 1019.0 |
| 20260901161315 | 61 | 30 | 3.0 | 3.0 | 0.00 | 0.00 | 0.00 | 48 | 1018.8 |
| 20260901160810 | 60 | 18 | 2.0 | 2.0 | 0.00 | 0.00 | 0.00 | 50 | 1018.9 |
| 20260901160307 | 60 | 46 | 2.0 | 2.0 | 0.00 | 0.00 | 0.00 | 50 | 1019.1 |
| 20260901155805 | 59 | 18 | 0.0 | 0.0 | 0.00 | 0.00 | 0.00 | 52 | 1019.1 |
| 20260901155300 | 59 | 91 | 0.0 | 0.0 | 0.00 | 0.00 | 0.00 | 51 | 1019.0 |
| 20260901154756 | 58 | 89 | 0.0 | 0.0 | 0.00 | 0.00 | 0.00 | 52 | 1019.2 |
| 20260901154255 | 57 | 60 | 0.0 | 0.0 | 0.00 | 0.00 | 0.00 | 57 | 1019.2 |
| 20260901153750 | 55 | 67 | 0.0 | 0.0 | 0.00 | 0.00 | 0.00 | 58 | 1019.3 |
| 20260901153245 | 56 | 130 | 0.0 | 0.0 | 0.00 | 0.00 | 0.00 | 56 | 1019.2 |
| 20260901152744 | 54 | 114 | 0.0 | 0.0 | 0.00 | 0.00 | 0.00 | 60 | 1019.3 |
| 20260901152243 | 54 | 150 | 0.0 | 0.0 | 0.00 | 0.00 | 0.00 | 61 | 1019.6 |
| 20260901151738 | 53 | 152 | 0.0 | 0.0 | 0.00 | 0.00 | 0.00 | 62 | 1019.6 |
| 20260901151233 | 52 | 154 | 0.0 | 0.0 | 0.00 | 0.00 | 0.00 | 65 | 1019.6 |
| 20260901150732 | 51 | 154 | 0.0 | 0.0 | 0.00 | 0.00 | 0.00 | 66 | 1019.6 |
| 20260901150231 | 51 | 170 | 0.0 | 0.0 | 0.00 | 0.00 | 0.00 | 67 | 1019.7 |
| 20260901145729 | 48 | 171 | 0.0 | 0.0 | 0.00 | 0.00 | 0.00 | 69 | 1019.7 |
| 20260901145228 | 46 | 171 | 0.0 | 0.0 | 0.00 | 0.00 | 0.00 | 75 | 1019.7 |
| 20260901144724 | 44 | 174 | 0.0 | 0.0 | 0.00 | 0.00 | 0.00 | 79 | 1019.7 |
| 20260901144219 | 42 | 174 | 0.0 | 0.0 | 0.00 | 0.00 | 0.00 | 83 | 1019.7 |
| 20260901143714 | 40 | 174 | 0.0 | 0.0 | 0.00 | 0.00 | 0.00 | 85 | 1019.8 |
| 20260901143211 | 38 | 175 | 0.0 | 0.0 | 0.00 | 0.00 | 0.00 | 92 | 1020.0 |
| 20260901142707 | 37 | 175 | 0.0 | 0.0 | 0.00 | 0.00 | 0.00 | 93 | 1019.9 |
| 20260901142205 | 36 | 175 | 0.0 | 0.0 | 0.00 | 0.00 | 0.00 | 93 | 1019.9 |
| 20260901141700 | 36 | 175 | 0.0 | 0.0 | 0.00 | 0.00 | 0.00 | 93 | 1019.8 |
| 20260901141155 | 36 | 175 | 0.0 | 0.0 | 0.00 | 0.00 | 0.00 | 94 | 1019.9 |
| 20260901140654 | 36 | 175 | 0.0 | 0.0 | 0.00 | 0.00 | 0.00 | 94 | 1020.0 |
| 20260901140153 | 36 | 175 | 0.0 | 0.0 | 0.00 | 0.00 | 0.00 | 95 | 1020.1 |
| 20260901135648 | 36 | 175 | 0.0 | 0.0 | 0.00 | 0.00 | 0.00 | 95 | 1019.9 |
| 20260901135143 | 36 | 175 | 0.0 | 0.0 | 0.00 | 0.00 | 0.00 | 95 | 1019.9 |
| 20260901134638 | 35 | 175 | 0.0 | 0.0 | 0.00 | 0.00 | 0.00 | 95 | 1019.6 |
| 20260901134133 | 35 | 175 | 0.0 | 0.0 | 0.00 | 0.00 | 0.00 | 94 | 1019.6 |
| 20260901133632 | 35 | 175 | 0.0 | 0.0 | 0.00 | 0.00 | 0.00 | 95 | 1019.7 |
| 20260901133131 | 36 | 175 | 0.0 | 0.0 | 0.00 | 0.00 | 0.00 | 95 | 1019.8 |
| 20260901132625 | 35 | 175 | 0.0 | 0.0 | 0.00 | 0.00 | 0.00 | 95 | 1019.6 |
| 20260901132125 | 36 | 175 | 0.0 | 0.0 | 0.00 | 0.00 | 0.00 | 95 | 1019.5 |
| 20260901131625 | 35 | 175 | 0.0 | 0.0 | 0.00 | 0.00 | 0.00 | 95 | 1019.6 |
| 20260901131120 | 35 | 175 | 0.0 | 0.0 | 0.00 | 0.00 | 0.00 | 94 | 1019.5 |
| 20260901130615 | 36 | 175 | 0.0 | 0.0 | 0.00 | 0.00 | 0.00 | 94 | 1019.7 |
| 20260901130114 | 36 | 176 | 0.0 | 0.0 | 0.00 | 0.00 | 0.00 | 94 | 1019.6 |
| 20260901125612 | 36 | 175 | 0.0 | 0.0 | 0.00 | 0.00 | 0.00 | 94 | 1019.6 |
| 20260901125108 | 36 | 175 | 0.0 | 0.0 | 0.00 | 0.00 | 0.00 | 93 | 1019.3 |
| 20260901124607 | 36 | 176 | 0.0 | 0.0 | 0.00 | 0.00 | 0.00 | 93 | 1019.3 |
| 20260901124102 | 36 | 176 | 0.0 | 0.0 | 0.00 | 0.00 | 0.00 | 93 | 1019.3 |
| 20260901123557 | 36 | 175 | 0.0 | 0.0 | 0.00 | 0.00 | 0.00 | 93 | 1019.3 |
| 20260901123056 | 36 | 175 | 0.0 | 0.0 | 0.00 | 0.00 | 0.00 | 92 | 1019.3 |
| 20260901122555 | 36 | 175 | 0.0 | 0.0 | 0.00 | 0.00 | 0.00 | 93 | 1019.3 |
| 20260901122050 | 36 | 175 | 0.0 | 0.0 | 0.00 | 0.00 | 0.00 | 92 | 1019.5 |
| 20260901121549 | 36 | 174 | 0.0 | 0.0 | 0.00 | 0.00 | 0.00 | 93 | 1019.1 |
| 20260901121044 | 36 | 174 | 0.0 | 0.0 | 0.00 | 0.00 | 0.00 | 93 | 1019.3 |
| 20260901120544 | 36 | 174 | 0.0 | 0.0 | 0.00 | 0.00 | 0.00 | 92 | 1019.3 |
| 20260901120040 | 37 | 174 | 0.0 | 0.0 | 0.00 | 0.00 | 0.00 | 92 | 1019.3 |
| 20260901115535 | 37 | 174 | 0.0 | 0.0 | 0.00 | 0.00 | 0.00 | 92 | 1019.5 |
| 20260901115032 | 37 | 174 | 0.0 | 0.0 | 0.00 | 0.00 | 0.00 | 91 | 1019.2 |
| 20260901114528 | 37 | 174 | 0.0 | 0.0 | 0.00 | 0.00 | 0.00 | 91 | 1019.2 |
| 20260901114026 | 37 | 174 | 0.0 | 0.0 | 0.00 | 0.00 | 0.00 | 91 | 1019.3 |
| 20260901113525 | 37 | 174 | 0.0 | 0.0 | 0.00 | 0.00 | 0.00 | 91 | 1019.0 |
| 20260901113021 | 37 | 174 | 0.0 | 0.0 | 0.00 | 0.00 | 0.00 | 91 | 1019.2 |
| 20260901112515 | 37 | 174 | 0.0 | 0.0 | 0.00 | 0.00 | 0.00 | 91 | 1019.5 |
| 20260901112011 | 38 | 174 | 0.0 | 0.0 | 0.00 | 0.00 | 0.00 | 91 | 1019.2 |
| 20260901111509 | 38 | 174 | 0.0 | 0.0 | 0.00 | 0.00 | 0.00 | 91 | 1019.2 |
| 20260901111008 | 38 | 174 | 0.0 | 0.0 | 0.00 | 0.00 | 0.00 | 90 | 1019.1 |
| 20260901110504 | 38 | 174 | 0.0 | 0.0 | 0.00 | 0.00 | 0.00 | 89 | 1019.2 |
| 20260901105959 | 38 | 174 | 0.0 | 0.0 | 0.00 | 0.00 | 0.00 | 89 | 1019.1 |
| 20260901105455 | 38 | 174 | 0.0 | 0.0 | 0.00 | 0.00 | 0.00 | 90 | 1019.2 |
| 20260901104949 | 38 | 174 | 0.0 | 0.0 | 0.00 | 0.00 | 0.00 | 89 | 1019.2 |
| 20260901104445 | 38 | 174 | 0.0 | 0.0 | 0.00 | 0.00 | 0.00 | 89 | 1019.1 |
| 20260901103940 | 39 | 174 | 0.0 | 0.0 | 0.00 | 0.00 | 0.00 | 88 | 1019.2 |
| 20260901103440 | 39 | 174 | 0.0 | 0.0 | 0.00 | 0.00 | 0.00 | 88 | 1019.0 |
| 20260901102935 | 39 | 174 | 0.0 | 0.0 | 0.00 | 0.00 | 0.00 | 88 | 1019.0 |
| 20260901102430 | 39 | 174 | 0.0 | 0.0 | 0.00 | 0.00 | 0.00 | 87 | 1019.2 |
| 20260901101925 | 39 | 174 | 0.0 | 0.0 | 0.00 | 0.00 | 0.00 | 87 | 1018.9 |
| 20260901101420 | 39 | 174 | 0.0 | 0.0 | 0.00 | 0.00 | 0.00 | 87 | 1019.0 |
| 20260901100920 | 39 | 174 | 0.0 | 0.0 | 0.00 | 0.00 | 0.00 | 87 | 1019.1 |
| 20260901100415 | 39 | 174 | 0.0 | 0.0 | 0.00 | 0.00 | 0.00 | 86 | 1019.0 |
| 20260901095914 | 40 | 174 | 0.0 | 0.0 | 0.00 | 0.00 | 0.00 | 86 | 1019.0 |
| 20260901095413 | 40 | 174 | 0.0 | 0.0 | 0.00 | 0.00 | 0.00 | 86 | 1019.1 |
| 20260901094911 | 39 | 174 | 0.0 | 0.0 | 0.00 | 0.00 | 0.00 | 86 | 1019.1 |
| 20260901094406 | 40 | 174 | 0.0 | 0.0 | 0.00 | 0.00 | 0.00 | 86 | 1019.0 |
| 20260901093901 | 40 | 174 | 0.0 | 0.0 | 0.00 | 0.00 | 0.00 | 85 | 1019.1 |
| 20260901093401 | 40 | 174 | 0.0 | 0.0 | 0.00 | 0.00 | 0.00 | 85 | 1019.0 |
| 20260901092856 | 40 | 174 | 0.0 | 0.0 | 0.00 | 0.00 | 0.00 | 85 | 1019.1 |
| 20260901092351 | 40 | 174 | 0.0 | 0.0 | 0.00 | 0.00 | 0.00 | 85 | 1019.1 |
| 20260901091847 | 40 | 174 | 0.0 | 0.0 | 0.00 | 0.00 | 0.00 | 85 | 1019.1 |
| 20260901091347 | 40 | 174 | 0.0 | 0.0 | 0.00 | 0.00 | 0.00 | 85 | 1019.2 |
| 20260901090842 | 40 | 174 | 0.0 | 0.0 | 0.00 | 0.00 | 0.00 | 85 | 1019.3 |
| 20260901090342 | 41 | 174 | 0.0 | 0.0 | 0.00 | 0.00 | 0.00 | 84 | 1019.2 |
| 20260901085838 | 41 | 174 | 0.0 | 0.0 | 0.00 | 0.00 | 0.00 | 85 | 1019.2 |
| 20260901085333 | 41 | 174 | 0.0 | 0.0 | 0.00 | 0.00 | 0.00 | 84 | 1019.2 |
| 20260901084830 | 41 | 174 | 0.0 | 0.0 | 0.00 | 0.00 | 0.00 | 84 | 1019.2 |
| 20260901084326 | 41 | 174 | 0.0 | 0.0 | 0.00 | 0.00 | 0.00 | 83 | 1019.2 |
| 20260901083821 | 41 | 174 | 0.0 | 0.0 | 0.00 | 0.00 | 0.00 | 84 | 1019.3 |
| 20260901083320 | 41 | 174 | 0.0 | 0.0 | 0.00 | 0.00 | 0.00 | 83 | 1019.2 |
| 20260901082819 | 41 | 174 | 0.0 | 0.0 | 0.00 | 0.00 | 0.00 | 83 | 1019.3 |
| 20260901082314 | 41 | 174 | 0.0 | 0.0 | 0.00 | 0.00 | 0.00 | 83 | 1019.2 |
| 20260901081809 | 42 | 174 | 0.0 | 0.0 | 0.00 | 0.00 | 0.00 | 82 | 1019.5 |
| 20260901081309 | 42 | 174 | 0.0 | 0.0 | 0.00 | 0.00 | 0.00 | 82 | 1019.3 |
| 20260901080804 | 42 | 174 | 0.0 | 0.0 | 0.00 | 0.00 | 0.00 | 81 | 1019.5 |
| 20260901080304 | 42 | 174 | 0.0 | 0.0 | 0.00 | 0.00 | 0.00 | 81 | 1019.3 |
| 20260901075758 | 42 | 174 | 0.0 | 0.0 | 0.00 | 0.00 | 0.00 | 81 | 1019.5 |
| 20260901075248 | 42 | 174 | 0.0 | 0.0 | 0.00 | 0.00 | 0.00 | 81 | 1019.6 |
| 20260901074747 | 43 | 174 | 0.0 | 0.0 | 0.00 | 0.00 | 0.00 | 80 | 1019.5 |
| 20260901074242 | 43 | 174 | 0.0 | 0.0 | 0.00 | 0.00 | 0.00 | 79 | 1019.8 |
| 20260901073738 | 43 | 174 | 0.0 | 0.0 | 0.00 | 0.00 | 0.00 | 79 | 1019.7 |
| 20260901073234 | 43 | 174 | 0.0 | 0.0 | 0.00 | 0.00 | 0.00 | 79 | 1019.3 |
| 20260901072729 | 43 | 174 | 0.0 | 0.0 | 0.00 | 0.00 | 0.00 | 79 | 1019.6 |
| 20260901072224 | 44 | 175 | 0.0 | 0.0 | 0.00 | 0.00 | 0.00 | 78 | 1019.3 |
| 20260901071725 | 44 | 174 | 0.0 | 0.0 | 0.00 | 0.00 | 0.00 | 78 | 1019.5 |
| 20260901071224 | 44 | 175 | 0.0 | 0.0 | 0.00 | 0.00 | 0.00 | 78 | 1019.6 |
| 20260901070718 | 44 | 175 | 0.0 | 0.0 | 0.00 | 0.00 | 0.00 | 78 | 1019.6 |
| 20260901070213 | 44 | 175 | 0.0 | 0.0 | 0.00 | 0.00 | 0.00 | 77 | 1019.6 |
| 20260901065712 | 44 | 175 | 0.0 | 0.0 | 0.00 | 0.00 | 0.00 | 77 | 1019.5 |
| 20260901065208 | 45 | 173 | 0.0 | 0.0 | 0.00 | 0.00 | 0.00 | 77 | 1019.7 |
| 20260901064704 | 44 | 169 | 0.0 | 0.0 | 0.00 | 0.00 | 0.00 | 78 | 1019.6 |
| 20260901064200 | 44 | 169 | 0.0 | 0.0 | 0.00 | 0.00 | 0.00 | 77 | 1019.5 |
| 20260901063657 | 45 | 169 | 0.0 | 0.0 | 0.00 | 0.00 | 0.00 | 76 | 1019.6 |
| 20260901063153 | 45 | 169 | 0.0 | 0.0 | 0.00 | 0.00 | 0.00 | 76 | 1019.7 |
| 20260901062648 | 45 | 169 | 0.0 | 0.0 | 0.00 | 0.00 | 0.00 | 75 | 1019.8 |
| 20260901062144 | 46 | 169 | 0.0 | 0.0 | 0.00 | 0.00 | 0.00 | 75 | 1019.6 |
| 20260901061641 | 46 | 169 | 0.0 | 0.0 | 0.00 | 0.00 | 0.00 | 75 | 1019.6 |
| 20260901061140 | 46 | 169 | 0.0 | 0.0 | 0.00 | 0.00 | 0.00 | 75 | 1019.7 |
| 20260901060640 | 46 | 169 | 0.0 | 0.0 | 0.00 | 0.00 | 0.00 | 75 | 1019.6 |
| 20260901060136 | 46 | 169 | 0.0 | 0.0 | 0.00 | 0.00 | 0.00 | 76 | 1019.5 |
| 20260901055631 | 46 | 169 | 0.0 | 0.0 | 0.00 | 0.00 | 0.00 | 75 | 1019.6 |
| 20260901055128 | 47 | 169 | 0.0 | 0.0 | 0.00 | 0.00 | 0.00 | 74 | 1019.6 |
| 20260901054625 | 47 | 169 | 0.0 | 0.0 | 0.00 | 0.00 | 0.00 | 74 | 1019.3 |
| 20260901054120 | 47 | 169 | 0.0 | 0.0 | 0.00 | 0.00 | 0.00 | 73 | 1019.6 |
| 20260901053616 | 48 | 169 | 0.0 | 0.0 | 0.00 | 0.00 | 0.00 | 73 | 1019.5 |
| 20260901053112 | 48 | 169 | 0.0 | 0.0 | 0.00 | 0.00 | 0.00 | 72 | 1019.6 |
| 20260901052612 | 47 | 169 | 0.0 | 0.0 | 0.00 | 0.00 | 0.00 | 74 | 1019.3 |
| 20260901052108 | 48 | 169 | 0.0 | 0.0 | 0.00 | 0.00 | 0.00 | 73 | 1019.5 |
| 20260901051607 | 48 | 169 | 0.0 | 0.0 | 0.00 | 0.00 | 0.00 | 72 | 1019.6 |
| 20260901051106 | 49 | 169 | 0.0 | 0.0 | 0.00 | 0.00 | 0.00 | 71 | 1019.3 |
| 20260901050601 | 49 | 169 | 0.0 | 0.0 | 0.00 | 0.00 | 0.00 | 71 | 1019.5 |
| 20260901050056 | 49 | 169 | 0.0 | 0.0 | 0.00 | 0.00 | 0.00 | 72 | 1019.5 |
| 20260901045551 | 49 | 169 | 0.0 | 0.0 | 0.00 | 0.00 | 0.00 | 72 | 1019.7 |
| 20260901045046 | 50 | 169 | 0.0 | 0.0 | 0.00 | 0.00 | 0.00 | 71 | 1019.6 |
| 20260901044542 | 50 | 169 | 0.0 | 0.0 | 0.00 | 0.00 | 0.00 | 69 | 1019.6 |
| 20260901044038 | 50 | 169 | 0.0 | 0.0 | 0.00 | 0.00 | 0.00 | 69 | 1019.5 |
| 20260901043533 | 50 | 169 | 0.0 | 0.0 | 0.00 | 0.00 | 0.00 | 69 | 1019.6 |
| 20260901043029 | 51 | 169 | 0.0 | 0.0 | 0.00 | 0.00 | 0.00 | 69 | 1019.6 |
| 20260901042528 | 51 | 169 | 0.0 | 0.0 | 0.00 | 0.00 | 0.00 | 68 | 1019.6 |
| 20260901042024 | 51 | 169 | 0.0 | 0.0 | 0.00 | 0.00 | 0.00 | 68 | 1019.3 |
| 20260901041519 | 52 | 169 | 0.0 | 0.0 | 0.00 | 0.00 | 0.00 | 67 | 1019.6 |
| 20260901041014 | 52 | 169 | 0.0 | 0.0 | 0.00 | 0.00 | 0.00 | 66 | 1019.6 |
| 20260901040508 | 53 | 167 | 0.0 | 0.0 | 0.00 | 0.00 | 0.00 | 65 | 1019.5 |
| 20260901040007 | 53 | 167 | 0.0 | 0.0 | 0.00 | 0.00 | 0.00 | 64 | 1019.6 |
| 20260901035505 | 53 | 167 | 0.0 | 0.0 | 0.00 | 0.00 | 0.00 | 63 | 1019.7 |
| 20260901034959 | 54 | 167 | 0.0 | 0.0 | 0.00 | 0.00 | 0.00 | 62 | 1019.6 |
| 20260901034459 | 54 | 167 | 0.0 | 0.0 | 0.00 | 0.00 | 0.00 | 62 | 1019.5 |
| 20260901033954 | 54 | 167 | 0.0 | 0.0 | 0.00 | 0.00 | 0.00 | 61 | 1019.6 |
| 20260901033453 | 55 | 167 | 0.0 | 0.0 | 0.00 | 0.00 | 0.00 | 60 | 1019.5 |
| 20260901032951 | 55 | 167 | 0.0 | 0.0 | 0.00 | 0.00 | 0.00 | 59 | 1019.7 |
| 20260901032446 | 56 | 167 | 0.0 | 0.0 | 0.00 | 0.00 | 0.00 | 57 | 1019.6 |
| 20260901031941 | 56 | 167 | 0.0 | 0.0 | 0.00 | 0.00 | 0.00 | 56 | 1019.6 |
| 20260901031436 | 57 | 167 | 0.0 | 0.0 | 0.00 | 0.00 | 0.00 | 54 | 1019.6 |
| 20260901030931 | 57 | 167 | 0.0 | 0.0 | 0.00 | 0.00 | 0.00 | 54 | 1019.3 |
| 20260901030426 | 58 | 168 | 0.0 | 0.0 | 0.00 | 0.00 | 0.00 | 52 | 1019.1 |
| 20260901025925 | 58 | 167 | 0.0 | 0.0 | 0.00 | 0.00 | 0.00 | 51 | 1019.1 |
| 20260901025420 | 59 | 167 | 0.0 | 0.0 | 0.00 | 0.00 | 0.00 | 50 | 1019.0 |
| 20260901024920 | 59 | 265 | 0.0 | 0.0 | 0.00 | 0.00 | 0.00 | 50 | 1019.1 |
| 20260901024420 | 60 | 265 | 0.0 | 0.0 | 0.00 | 0.00 | 0.00 | 49 | 1019.0 |
| 20260901023918 | 60 | 265 | 0.0 | 0.0 | 0.00 | 0.00 | 0.00 | 50 | 1018.7 |
| 20260901023413 | 61 | 265 | 0.0 | 0.0 | 0.00 | 0.00 | 0.00 | 48 | 1018.7 |
| 20260901022908 | 62 | 265 | 0.0 | 0.0 | 0.00 | 0.00 | 0.00 | 47 | 1018.6 |
| 20260901022404 | 62 | 266 | 0.0 | 0.0 | 0.00 | 0.00 | 0.00 | 46 | 1018.8 |
| 20260901021859 | 63 | 266 | 0.0 | 0.0 | 0.00 | 0.00 | 0.00 | 45 | 1018.7 |
| 20260901021354 | 64 | 282 | 0.0 | 0.0 | 0.00 | 0.00 | 0.00 | 46 | 1018.8 |
| 20260901020849 | 64 | 282 | 0.0 | 0.0 | 0.00 | 0.00 | 0.00 | 45 | 1018.6 |
| 20260901020345 | 65 | 282 | 0.0 | 0.0 | 0.00 | 0.00 | 0.00 | 44 | 1018.6 |
| 20260901015838 | 66 | 282 | 0.0 | 0.0 | 0.00 | 0.00 | 0.00 | 42 | 1018.5 |
| 20260901015335 | 67 | 282 | 0.0 | 0.0 | 0.00 | 0.00 | 0.00 | 41 | 1018.3 |
| 20260901014834 | 68 | 246 | 0.0 | 0.0 | 0.00 | 0.00 | 0.00 | 40 | 1018.5 |
| 20260901014330 | 68 | 175 | 0.0 | 0.0 | 0.00 | 0.00 | 0.00 | 40 | 1018.3 |
| 20260901013825 | 69 | 150 | 0.0 | 0.0 | 0.00 | 0.00 | 0.00 | 39 | 1018.3 |
| 20260901013321 | 69 | 64 | 0.0 | 0.0 | 0.00 | 0.00 | 0.00 | 39 | 1018.3 |
| 20260901012816 | 70 | 15 | 0.0 | 0.0 | 0.00 | 0.00 | 0.00 | 37 | 1018.2 |
| 20260901012311 | 71 | 30 | 0.0 | 1.0 | 0.00 | 0.00 | 0.00 | 34 | 1018.2 |
| 20260901011808 | 72 | 26 | 0.0 | 1.0 | 0.00 | 0.00 | 0.00 | 34 | 1018.2 |
| 20260901011302 | 72 | 16 | 0.0 | 1.0 | 0.00 | 0.00 | 0.00 | 34 | 1018.0 |
| 20260901010755 | 74 | 281 | 0.0 | 2.0 | 0.00 | 0.00 | 0.00 | 32 | 1018.0 |
| 20260901010250 | 75 | 314 | 2.0 | 2.0 | 0.00 | 0.00 | 0.00 | 29 | 1018.0 |
| 20260901005749 | 76 | 308 | 3.0 | 3.0 | 0.00 | 0.00 | 0.00 | 28 | 1018.1 |
| 20260901005244 | 77 | 300 | 3.0 | 3.0 | 0.00 | 0.00 | 0.00 | 28 | 1018.2 |
| 20260901004744 | 77 | 43 | 2.0 | 3.0 | 0.00 | 0.00 | 0.00 | 28 | 1018.1 |
| 20260901004240 | 78 | 306 | 2.0 | 2.0 | 0.00 | 0.00 | 0.00 | 28 | 1018.6 |
| 20260901003739 | 78 | 22 | 4.0 | 5.0 | 0.00 | 0.00 | 0.00 | 28 | 1018.1 |
| 20260901003234 | 79 | 302 | 2.0 | 3.0 | 0.00 | 0.00 | 0.00 | 28 | 1018.2 |
| 20260901002732 | 79 | 305 | 2.0 | 3.0 | 0.00 | 0.00 | 0.00 | 27 | 1018.2 |
| 20260901002228 | 78 | 319 | 2.0 | 3.0 | 0.00 | 0.00 | 0.00 | 27 | 1018.3 |
| 20260901001723 | 79 | 307 | 4.0 | 5.0 | 0.00 | 0.00 | 0.00 | 28 | 1018.2 |
| 20260901001218 | 80 | 322 | 1.0 | 7.0 | 0.00 | 0.00 | 0.00 | 27 | 1018.2 |
| 20260901000708 | 80 | 345 | 5.0 | 8.0 | 0.00 | 0.00 | 0.00 | 26 | 1018.5 |
| 20260901000204 | 80 | 13 | 4.0 | 8.0 | 0.00 | 0.00 | 0.00 | 25 | 1018.5 |
| 20260831235701 | 80 | 326 | 5.0 | 7.0 | 0.00 | 0.00 | 0.00 | 26 | 1018.5 |
| 20260831235157 | 80 | 340 | 5.0 | 8.0 | 0.00 | 0.00 | 0.00 | 25 | 1018.6 |
| 20260831234657 | 80 | 319 | 5.0 | 13.0 | 0.00 | 0.00 | 0.00 | 25 | 1018.6 |
| 20260831234152 | 80 | 345 | 5.0 | 8.0 | 0.00 | 0.00 | 0.00 | 25 | 1018.7 |
| 20260831233647 | 80 | 304 | 5.0 | 7.0 | 0.00 | 0.00 | 0.00 | 25 | 1018.7 |
| 20260831233143 | 80 | 299 | 3.0 | 7.0 | 0.00 | 0.00 | 0.00 | 25 | 1018.7 |
| 20260831232637 | 80 | 348 | 4.0 | 7.0 | 0.00 | 0.00 | 0.00 | 25 | 1018.8 |
| 20260831232135 | 80 | 322 | 5.0 | 9.0 | 0.00 | 0.00 | 0.00 | 25 | 1018.7 |
| 20260831231631 | 81 | 58 | 3.0 | 7.0 | 0.00 | 0.00 | 0.00 | 24 | 1019.0 |
| 20260831231126 | 80 | 321 | 5.0 | 8.0 | 0.00 | 0.00 | 0.00 | 25 | 1018.9 |
| 20260831230622 | 80 | 32 | 4.0 | 7.0 | 0.00 | 0.00 | 0.00 | 25 | 1019.0 |
| 20260831230121 | 80 | 321 | 5.0 | 8.0 | 0.00 | 0.00 | 0.00 | 25 | 1019.0 |
| 20260831225611 | 80 | 342 | 4.0 | 9.0 | 0.00 | 0.00 | 0.00 | 25 | 1019.2 |
| 20260831225110 | 80 | 25 | 3.0 | 5.0 | 0.00 | 0.00 | 0.00 | 25 | 1019.1 |
| 20260831224605 | 80 | 16 | 6.0 | 9.0 | 0.00 | 0.00 | 0.00 | 25 | 1019.3 |
| 20260831224101 | 79 | 304 | 3.0 | 6.0 | 0.00 | 0.00 | 0.00 | 25 | 1019.3 |
| 20260831223556 | 80 | 8 | 5.0 | 7.0 | 0.00 | 0.00 | 0.00 | 25 | 1019.2 |
| 20260831223052 | 79 | 333 | 5.0 | 7.0 | 0.00 | 0.00 | 0.00 | 25 | 1019.3 |
| 20260831222548 | 79 | 46 | 3.0 | 5.0 | 0.00 | 0.00 | 0.00 | 25 | 1019.7 |
| 20260831222048 | 79 | 327 | 5.0 | 8.0 | 0.00 | 0.00 | 0.00 | 25 | 1019.7 |
| 20260831221539 | 79 | 318 | 5.0 | 8.0 | 0.00 | 0.00 | 0.00 | 25 | 1019.7 |
| 20260831221039 | 79 | 300 | 3.0 | 7.0 | 0.00 | 0.00 | 0.00 | 26 | 1019.7 |
| 20260831220534 | 78 | 0 | 5.0 | 8.0 | 0.00 | 0.00 | 0.00 | 26 | 1019.9 |
| 20260831220029 | 78 | 328 | 8.0 | 10.0 | 0.00 | 0.00 | 0.00 | 26 | 1019.8 |
| 20260831215525 | 79 | 224 | 3.0 | 6.0 | 0.00 | 0.00 | 0.00 | 26 | 1019.9 |
| 20260831215020 | 78 | 349 | 6.0 | 8.0 | 0.00 | 0.00 | 0.00 | 26 | 1019.9 |
| 20260831214518 | 78 | 323 | 7.0 | 9.0 | 0.00 | 0.00 | 0.00 | 26 | 1020.0 |
| 20260831214014 | 78 | 1 | 3.0 | 9.0 | 0.00 | 0.00 | 0.00 | 27 | 1020.0 |
| 20260831213510 | 78 | 325 | 5.0 | 7.0 | 0.00 | 0.00 | 0.00 | 26 | 1020.1 |
| 20260831213005 | 77 | 299 | 2.0 | 6.0 | 0.00 | 0.00 | 0.00 | 27 | 1020.0 |
| 20260831212501 | 77 | 306 | 5.0 | 9.0 | 0.00 | 0.00 | 0.00 | 27 | 1020.2 |
| 20260831212000 | 77 | 307 | 4.0 | 8.0 | 0.00 | 0.00 | 0.00 | 27 | 1020.3 |
| 20260831211455 | 77 | 330 | 5.0 | 8.0 | 0.00 | 0.00 | 0.00 | 27 | 1020.3 |
| 20260831210954 | 77 | 306 | 7.0 | 11.0 | 0.00 | 0.00 | 0.00 | 28 | 1020.5 |
| 20260831210450 | 77 | 319 | 5.0 | 9.0 | 0.00 | 0.00 | 0.00 | 27 | 1020.5 |
| 20260831205946 | 77 | 25 | 9.0 | 11.0 | 0.00 | 0.00 | 0.00 | 27 | 1020.6 |